Strona główna
METAR-TAF:

METAR-TAF

Lotnisko :

Port lotniczy Perugia-Sant'Egidio

Perugia, Włochy

Szerokość geograficzna: 43-05N, Długość geograficzna: 012-30E, wysokość: 208 m

Aktualna obserwacja pogody

Raport powstał 32 minut temu, godzina 10:50 UTC
Wiatr 8 kt od północ, zmienny między północny zachód i północno-północny wschód
Temperatura 15°C
Wilgotność 31%
Ciśnienie 1012 hPa
Widzialność 10 km lub więcej
Brak chmur poniżej 1500 m i brak chmur cumulonimbus

METAR: LIRZ 031050Z 35008KT 320V020 CAVOK 15/M02 Q1012

czas: 13:22 (11:22 UTC)

Prognoza

Raport powstał 6 godziny i 22 minut temu, godzina 05:00 UTC
Prognoza ważna od 03 godzina 06 UTC do 04 godzina 06 UTC
Wiatr 6 kt z kierunków zmiennych
Widzialność 10 km lub więcej
Brak chmur poniżej 1500 m i brak chmur cumulonimbus

TAF: LIRZ 030500Z 0306/0406 VRB06KT CAVOK

Obserwacja i prognoza pogody dla ponad 4000 lotnisk (raport METAR i TAF).

Dostępne stacje oznaczono żółtymi i czerwonymi punktami na mapie.

Najedź kursorem aby zobaczyć nazwę stacji.

Kliknij aby zobaczyć obserwacje i prognozy pogody.

Aby zmienić mapę: kliknij na zielony przycisk z czarnym krzyżykiem, aby powiększyć; na zielony przycisk z myślnikiem, aby pomniejszyć; na zielone strzałki, aby przejść do map sąsiednich.


METAR-TAF: